OZ6DAL EKRK-ZZZZ
Flight info
| Callsign | OZ6DAL |
|---|---|
| Flight time | N/A |
| Altitude | |
| Route | VFR |
| Aircraft | TBM9 |
Departure
| Time | 2026-04-16 20:18 |
|---|---|
| Airport | Copenhagen Roskilde Airport (EKRK) |
Arrival
| Time | N/A |
|---|---|
| Airport | ZZZZ |
| Time | Latitude | Longitude | Altitude | Speed | Heading |
|---|---|---|---|---|---|
| 2026-04-16 20:00 | 55.58935 | 12.12858 | 145 ft | 0 kts | 238° |
| 2026-04-16 20:11 | 55.58937 | 12.12862 | 145 ft | 4 kts | 225° |
| 2026-04-16 20:11 | 55.58967 | 12.12807 | 145 ft | 2 kts | 115° |
| 2026-04-16 20:11 | 55.58943 | 12.12903 | 145 ft | 16 kts | 104° |
| 2026-04-16 20:11 | 55.58915 | 12.13034 | 144 ft | 0 kts | 131° |
| 2026-04-16 20:12 | 55.58898 | 12.13051 | 144 ft | 8 kts | 168° |
| 2026-04-16 20:12 | 55.58812 | 12.13015 | 143 ft | 19 kts | 172° |
| 2026-04-16 20:12 | 55.58725 | 12.13181 | 147 ft | 5 kts | 121° |
| 2026-04-16 20:12 | 55.58724 | 12.13185 | 147 ft | 0 kts | 120° |
| 2026-04-16 20:13 | 55.58705 | 12.13255 | 149 ft | 9 kts | 115° |
| 2026-04-16 20:13 | 55.58674 | 12.13366 | 150 ft | 14 kts | 115° |
| 2026-04-16 20:13 | 55.58605 | 12.13608 | 145 ft | 28 kts | 125° |
| 2026-04-16 20:13 | 55.58502 | 12.13700 | 143 ft | 0 kts | 162° |
| 2026-04-16 20:16 | 55.58436 | 12.13714 | 143 ft | 12 kts | 198° |
| 2026-04-16 20:16 | 55.58418 | 12.13642 | 142 ft | 0 kts | 295° |
| 2026-04-16 20:17 | 55.58499 | 12.13361 | 145 ft | 64 kts | 297° |
| 2026-04-16 20:17 | 55.58807 | 12.12290 | 227 ft | 125 kts | 295° |
| 2026-04-16 20:17 | 55.58803 | 12.10600 | 553 ft | 153 kts | 240° |
| 2026-04-16 20:18 | 55.57867 | 12.09863 | 886 ft | 158 kts | 168° |
| 2026-04-16 20:18 | 55.56764 | 12.10052 | 1142 ft | 165 kts | 176° |
| 2026-04-16 20:18 | 55.55624 | 12.10070 | 1309 ft | 167 kts | 182° |
| 2026-04-16 20:18 | 55.54446 | 12.09840 | 1217 ft | 179 kts | 191° |
| 2026-04-16 20:19 | 55.53288 | 12.09162 | 1346 ft | 174 kts | 202° |
| 2026-04-16 20:19 | 55.52232 | 12.08091 | 1373 ft | 175 kts | 214° |
| 2026-04-16 20:19 | 55.51250 | 12.06899 | 1655 ft | 162 kts | 216° |
| 2026-04-16 20:19 | 55.50363 | 12.05770 | 1965 ft | 159 kts | 219° |
| 2026-04-16 20:20 | 55.49452 | 12.04569 | 2174 ft | 167 kts | 218° |
| 2026-04-16 20:20 | 55.48685 | 12.03411 | 3173 ft | 130 kts | 223° |
| 2026-04-16 20:20 | 55.47934 | 12.02374 | 3423 ft | 147 kts | 223° |
| 2026-04-16 20:20 | 55.47103 | 12.01195 | 3631 ft | 162 kts | 216° |
| 2026-04-16 20:21 | 55.46118 | 12.00117 | 3905 ft | 169 kts | 215° |
| 2026-04-16 20:21 | 55.45126 | 11.98984 | 4130 ft | 177 kts | 211° |
| 2026-04-16 20:21 | 55.43897 | 11.98462 | 4288 ft | 186 kts | 180° |
| 2026-04-16 20:21 | 55.42641 | 11.98911 | 4591 ft | 187 kts | 164° |
| 2026-04-16 20:22 | 55.41380 | 11.99611 | 4755 ft | 192 kts | 163° |
| 2026-04-16 20:22 | 55.40085 | 12.00284 | 4862 ft | 198 kts | 167° |
| 2026-04-16 20:22 | 55.38710 | 12.00802 | 4851 ft | 206 kts | 172° |
| 2026-04-16 20:22 | 55.37261 | 12.01219 | 4447 ft | 224 kts | 171° |
| 2026-04-16 20:23 | 55.35748 | 12.01926 | 4357 ft | 217 kts | 152° |
| 2026-04-16 20:23 | 55.34578 | 12.03400 | 4756 ft | 198 kts | 143° |
| 2026-04-16 20:23 | 55.33461 | 12.04799 | 4827 ft | 205 kts | 146° |
| 2026-04-16 20:23 | 55.32280 | 12.06169 | 4719 ft | 198 kts | 147° |
| 2026-04-16 20:24 | 55.31132 | 12.07621 | 4853 ft | 207 kts | 140° |
| 2026-04-16 20:24 | 55.29983 | 12.09183 | 4985 ft | 210 kts | 150° |
| 2026-04-16 20:24 | 55.28618 | 12.10069 | 5023 ft | 215 kts | 167° |
| 2026-04-16 20:24 | 55.27092 | 12.10694 | 4789 ft | 226 kts | 169° |
| 2026-04-16 20:25 | 55.25562 | 12.11158 | 4872 ft | 222 kts | 172° |
| 2026-04-16 20:25 | 55.24027 | 12.11492 | 4840 ft | 224 kts | 175° |
| 2026-04-16 20:25 | 55.22472 | 12.11755 | 4782 ft | 224 kts | 175° |
| 2026-04-16 20:25 | 55.20948 | 12.12038 | 4830 ft | 222 kts | 175° |
| 2026-04-16 20:26 | 55.19410 | 12.12331 | 4833 ft | 223 kts | 175° |
| 2026-04-16 20:26 | 55.17863 | 12.12480 | 4805 ft | 223 kts | 182° |
| 2026-04-16 20:26 | 55.16310 | 12.12499 | 4793 ft | 223 kts | 180° |
| 2026-04-16 20:26 | 55.14760 | 12.12515 | 4812 ft | 222 kts | 181° |
| 2026-04-16 20:27 | 55.13252 | 12.12537 | 5210 ft | 200 kts | 181° |
| 2026-04-16 20:27 | 55.11960 | 12.12484 | 5997 ft | 178 kts | 186° |
| 2026-04-16 20:27 | 55.10689 | 12.12339 | 6240 ft | 190 kts | 187° |
| 2026-04-16 20:27 | 55.09336 | 12.12124 | 6440 ft | 198 kts | 185° |
| 2026-04-16 20:28 | 55.07981 | 12.12039 | 6902 ft | 190 kts | 186° |
| 2026-04-16 20:28 | 55.06674 | 12.11961 | 7273 ft | 190 kts | 186° |
| 2026-04-16 20:28 | 55.05305 | 12.11847 | 7389 ft | 208 kts | 187° |
| 2026-04-16 20:28 | 55.03824 | 12.11743 | 7695 ft | 212 kts | 187° |
| 2026-04-16 20:29 | 55.02382 | 12.11556 | 8434 ft | 200 kts | 186° |
| 2026-04-16 20:29 | 55.01043 | 12.11254 | 9033 ft | 196 kts | 199° |